Terminal Aerodrome Forecast
Issued by NWS Springfield, MO

Home | Current Version | Previous Version | Text Only | Print | Product List | Glossary On
Versions: 1 2 3 4 5 6 7 8 9 10 11 12 13 14 15 16 17 18 19 20 21 22 23 24 25 26 27 28 29
373
FTUS43 KSGF 261759 CCA
TAFSGF
TAF COR
KSGF 261759Z 2618/2718 22007KT P6SM SCT015
     FM261900 21006KT P6SM SCT200
     FM270300 13007KT P6SM -SHRA BKN050
     FM270600 14011G19KT 5SM SHRA VCTS OVC025CB
     FM271100 15008KT 5SM -SHRA OVC010
     FM271600 21008KT P6SM OVC015=

USA.gov is the U.S. government's official web portal to all federal, state and local government web resources and services.